sensor_id;sensor_type;location;lat;lon;timestamp;temperature;humidity
12438;DHT22;6283;51.330;12.374;2023-04-03T00:00:42;3.90;87.70
12438;DHT22;6283;51.330;12.374;2023-04-03T00:03:08;4.00;90.40
12438;DHT22;6283;51.330;12.374;2023-04-03T00:05:33;3.90;90.60
12438;DHT22;6283;51.330;12.374;2023-04-03T00:07:59;3.60;87.60
12438;DHT22;6283;51.330;12.374;2023-04-03T00:10:27;3.80;92.10
12438;DHT22;6283;51.330;12.374;2023-04-03T00:12:53;4.00;95.30
12438;DHT22;6283;51.330;12.374;2023-04-03T00:15:19;3.70;93.20
12438;DHT22;6283;51.330;12.374;2023-04-03T00:17:45;3.70;95.60
12438;DHT22;6283;51.330;12.374;2023-04-03T00:20:11;3.80;95.40
12438;DHT22;6283;51.330;12.374;2023-04-03T00:22:36;3.90;96.30
12438;DHT22;6283;51.330;12.374;2023-04-03T00:25:03;3.70;98.80
12438;DHT22;6283;51.330;12.374;2023-04-03T00:27:29;3.70;99.90
12438;DHT22;6283;51.330;12.374;2023-04-03T00:29:54;3.70;98.80
12438;DHT22;6283;51.330;12.374;2023-04-03T00:32:20;3.70;95.20
12438;DHT22;6283;51.330;12.374;2023-04-03T00:34:46;3.80;95.60
12438;DHT22;6283;51.330;12.374;2023-04-03T00:37:11;3.70;96.20
12438;DHT22;6283;51.330;12.374;2023-04-03T00:39:37;3.60;95.80
12438;DHT22;6283;51.330;12.374;2023-04-03T00:42:02;3.70;98.80
12438;DHT22;6283;51.330;12.374;2023-04-03T00:46:54;3.70;97.20
12438;DHT22;6283;51.330;12.374;2023-04-03T00:49:19;3.40;96.10
12438;DHT22;6283;51.330;12.374;2023-04-03T00:51:46;3.30;97.50
12438;DHT22;6283;51.330;12.374;2023-04-03T00:54:12;3.40;98.50
12438;DHT22;6283;51.330;12.374;2023-04-03T00:56:38;3.20;96.40
12438;DHT22;6283;51.330;12.374;2023-04-03T00:59:08;3.30;99.90
12438;DHT22;6283;51.330;12.374;2023-04-03T01:01:35;3.40;99.90
12438;DHT22;6283;51.330;12.374;2023-04-03T01:04:03;3.40;99.90
12438;DHT22;6283;51.330;12.374;2023-04-03T01:06:32;3.40;99.90
12438;DHT22;6283;51.330;12.374;2023-04-03T01:08:59;3.10;99.90
12438;DHT22;6283;51.330;12.374;2023-04-03T01:11:26;3.00;99.90
12438;DHT22;6283;51.330;12.374;2023-04-03T01:13:52;3.10;99.90
12438;DHT22;6283;51.330;12.374;2023-04-03T01:16:18;3.30;99.90
12438;DHT22;6283;51.330;12.374;2023-04-03T01:18:45;3.30;99.90
12438;DHT22;6283;51.330;12.374;2023-04-03T01:26:36;3.20;99.90
12438;DHT22;6283;51.330;12.374;2023-04-03T01:29:03;3.10;99.90
12438;DHT22;6283;51.330;12.374;2023-04-03T01:31:53;3.10;99.90
12438;DHT22;6283;51.330;12.374;2023-04-03T01:34:19;3.10;99.90
12438;DHT22;6283;51.330;12.374;2023-04-03T01:36:45;2.70;99.90
12438;DHT22;6283;51.330;12.374;2023-04-03T01:39:11;3.00;99.90
12438;DHT22;6283;51.330;12.374;2023-04-03T01:41:37;2.70;99.90
12438;DHT22;6283;51.330;12.374;2023-04-03T01:44:03;2.90;99.90
12438;DHT22;6283;51.330;12.374;2023-04-03T01:46:29;2.80;99.90
12438;DHT22;6283;51.330;12.374;2023-04-03T01:48:55;2.50;99.90
12438;DHT22;6283;51.330;12.374;2023-04-03T01:51:20;2.50;99.90
12438;DHT22;6283;51.330;12.374;2023-04-03T01:53:46;2.70;99.90
12438;DHT22;6283;51.330;12.374;2023-04-03T01:56:12;2.70;99.90
12438;DHT22;6283;51.330;12.374;2023-04-03T01:58:37;2.50;99.90
12438;DHT22;6283;51.330;12.374;2023-04-03T02:01:03;2.70;99.90
12438;DHT22;6283;51.330;12.374;2023-04-03T02:03:29;2.50;99.90
12438;DHT22;6283;51.330;12.374;2023-04-03T02:05:56;2.40;99.90
12438;DHT22;6283;51.330;12.374;2023-04-03T02:08:21;2.50;99.90
12438;DHT22;6283;51.330;12.374;2023-04-03T02:10:48;2.30;99.90
12438;DHT22;6283;51.330;12.374;2023-04-03T02:13:14;2.40;99.90
12438;DHT22;6283;51.330;12.374;2023-04-03T02:15:40;2.40;99.90
12438;DHT22;6283;51.330;12.374;2023-04-03T02:18:07;2.40;99.90
12438;DHT22;6283;51.330;12.374;2023-04-03T02:20:33;2.20;99.90
12438;DHT22;6283;51.330;12.374;2023-04-03T02:22:59;2.40;99.90
12438;DHT22;6283;51.330;12.374;2023-04-03T02:25:25;2.40;99.90
12438;DHT22;6283;51.330;12.374;2023-04-03T02:27:51;2.60;99.90
12438;DHT22;6283;51.330;12.374;2023-04-03T02:30:17;2.40;99.90
12438;DHT22;6283;51.330;12.374;2023-04-03T02:32:43;2.50;99.90
12438;DHT22;6283;51.330;12.374;2023-04-03T02:35:09;2.40;99.90
12438;DHT22;6283;51.330;12.374;2023-04-03T02:37:35;2.30;99.90
12438;DHT22;6283;51.330;12.374;2023-04-03T02:40:01;2.30;99.90
12438;DHT22;6283;51.330;12.374;2023-04-03T02:42:26;2.20;99.90
12438;DHT22;6283;51.330;12.374;2023-04-03T02:44:52;2.10;99.90
12438;DHT22;6283;51.330;12.374;2023-04-03T02:47:17;2.20;99.90
12438;DHT22;6283;51.330;12.374;2023-04-03T02:49:43;2.20;99.90
12438;DHT22;6283;51.330;12.374;2023-04-03T02:52:10;2.40;99.90
12438;DHT22;6283;51.330;12.374;2023-04-03T02:54:36;2.10;99.90
12438;DHT22;6283;51.330;12.374;2023-04-03T02:57:02;2.30;99.90
12438;DHT22;6283;51.330;12.374;2023-04-03T02:59:27;2.20;99.90
12438;DHT22;6283;51.330;12.374;2023-04-03T03:01:53;2.10;99.90
12438;DHT22;6283;51.330;12.374;2023-04-03T03:04:19;1.90;99.90
12438;DHT22;6283;51.330;12.374;2023-04-03T03:06:44;1.90;99.90
12438;DHT22;6283;51.330;12.374;2023-04-03T03:09:11;2.10;99.90
12438;DHT22;6283;51.330;12.374;2023-04-03T03:11:38;1.90;99.90
12438;DHT22;6283;51.330;12.374;2023-04-03T03:14:04;1.80;99.90
12438;DHT22;6283;51.330;12.374;2023-04-03T03:16:29;1.80;99.90
12438;DHT22;6283;51.330;12.374;2023-04-03T03:18:55;1.80;99.90
12438;DHT22;6283;51.330;12.374;2023-04-03T03:21:21;1.80;99.90
12438;DHT22;6283;51.330;12.374;2023-04-03T03:23:47;1.70;99.90
12438;DHT22;6283;51.330;12.374;2023-04-03T03:26:12;1.60;99.90
12438;DHT22;6283;51.330;12.374;2023-04-03T03:28:39;1.70;99.90
12438;DHT22;6283;51.330;12.374;2023-04-03T03:31:05;1.60;99.90
12438;DHT22;6283;51.330;12.374;2023-04-03T03:33:31;1.80;99.90
12438;DHT22;6283;51.330;12.374;2023-04-03T03:35:57;1.70;99.90
12438;DHT22;6283;51.330;12.374;2023-04-03T03:38:23;1.60;99.90
12438;DHT22;6283;51.330;12.374;2023-04-03T03:40:50;1.70;99.90
12438;DHT22;6283;51.330;12.374;2023-04-03T03:43:17;1.40;99.90
12438;DHT22;6283;51.330;12.374;2023-04-03T03:45:44;1.60;99.90
12438;DHT22;6283;51.330;12.374;2023-04-03T03:48:09;1.40;99.90
12438;DHT22;6283;51.330;12.374;2023-04-03T03:50:35;1.40;99.90
12438;DHT22;6283;51.330;12.374;2023-04-03T03:53:01;1.70;99.90
12438;DHT22;6283;51.330;12.374;2023-04-03T03:55:26;1.30;99.90
12438;DHT22;6283;51.330;12.374;2023-04-03T03:57:52;1.40;99.90
12438;DHT22;6283;51.330;12.374;2023-04-03T04:00:18;1.60;99.90
12438;DHT22;6283;51.330;12.374;2023-04-03T04:02:43;1.30;99.90
12438;DHT22;6283;51.330;12.374;2023-04-03T04:05:09;1.50;99.90
12438;DHT22;6283;51.330;12.374;2023-04-03T04:07:35;1.40;99.90
12438;DHT22;6283;51.330;12.374;2023-04-03T04:10:00;1.20;99.90
12438;DHT22;6283;51.330;12.374;2023-04-03T04:12:26;1.40;99.90
12438;DHT22;6283;51.330;12.374;2023-04-03T04:14:52;1.20;99.90
12438;DHT22;6283;51.330;12.374;2023-04-03T04:17:17;1.00;99.90
12438;DHT22;6283;51.330;12.374;2023-04-03T04:19:43;1.20;99.90
12438;DHT22;6283;51.330;12.374;2023-04-03T04:22:09;1.30;99.90
12438;DHT22;6283;51.330;12.374;2023-04-03T04:24:34;1.20;99.90
12438;DHT22;6283;51.330;12.374;2023-04-03T04:27:00;1.30;99.90
12438;DHT22;6283;51.330;12.374;2023-04-03T04:29:25;1.00;99.90
12438;DHT22;6283;51.330;12.374;2023-04-03T04:31:51;1.20;99.90
12438;DHT22;6283;51.330;12.374;2023-04-03T04:34:17;1.20;99.90
12438;DHT22;6283;51.330;12.374;2023-04-03T04:36:43;1.20;99.90
12438;DHT22;6283;51.330;12.374;2023-04-03T04:39:08;1.00;99.90
12438;DHT22;6283;51.330;12.374;2023-04-03T04:41:34;0.80;99.90
12438;DHT22;6283;51.330;12.374;2023-04-03T04:44:00;0.90;99.90
12438;DHT22;6283;51.330;12.374;2023-04-03T04:46:26;0.90;99.90
12438;DHT22;6283;51.330;12.374;2023-04-03T04:48:52;0.80;99.90
12438;DHT22;6283;51.330;12.374;2023-04-03T04:51:18;0.90;99.90
12438;DHT22;6283;51.330;12.374;2023-04-03T04:53:43;0.90;99.90
12438;DHT22;6283;51.330;12.374;2023-04-03T04:56:09;1.00;99.90
12438;DHT22;6283;51.330;12.374;2023-04-03T04:58:36;1.10;99.90
12438;DHT22;6283;51.330;12.374;2023-04-03T05:01:03;1.10;99.90
12438;DHT22;6283;51.330;12.374;2023-04-03T05:03:30;1.10;99.90
12438;DHT22;6283;51.330;12.374;2023-04-03T05:05:55;1.00;99.90
12438;DHT22;6283;51.330;12.374;2023-04-03T05:08:21;1.10;99.90
12438;DHT22;6283;51.330;12.374;2023-04-03T05:10:47;1.00;99.90
12438;DHT22;6283;51.330;12.374;2023-04-03T05:13:13;1.20;99.90
12438;DHT22;6283;51.330;12.374;2023-04-03T05:15:39;1.30;99.90
12438;DHT22;6283;51.330;12.374;2023-04-03T05:18:05;1.10;99.90
12438;DHT22;6283;51.330;12.374;2023-04-03T05:20:31;1.00;99.90
12438;DHT22;6283;51.330;12.374;2023-04-03T05:22:58;1.00;99.90
12438;DHT22;6283;51.330;12.374;2023-04-03T05:25:23;1.30;99.90
12438;DHT22;6283;51.330;12.374;2023-04-03T05:27:49;1.30;99.90
12438;DHT22;6283;51.330;12.374;2023-04-03T05:30:15;1.50;99.90
12438;DHT22;6283;51.330;12.374;2023-04-03T05:32:41;1.10;99.90
12438;DHT22;6283;51.330;12.374;2023-04-03T05:35:08;1.40;99.90
12438;DHT22;6283;51.330;12.374;2023-04-03T05:37:34;1.20;99.90
12438;DHT22;6283;51.330;12.374;2023-04-03T05:40:00;1.40;99.90
12438;DHT22;6283;51.330;12.374;2023-04-03T05:42:26;1.30;99.90
12438;DHT22;6283;51.330;12.374;2023-04-03T05:44:51;1.30;99.90
12438;DHT22;6283;51.330;12.374;2023-04-03T05:47:18;1.50;99.90
12438;DHT22;6283;51.330;12.374;2023-04-03T05:49:44;1.70;99.90
12438;DHT22;6283;51.330;12.374;2023-04-03T05:52:27;1.50;99.90
12438;DHT22;6283;51.330;12.374;2023-04-03T05:54:53;1.50;99.90
12438;DHT22;6283;51.330;12.374;2023-04-03T05:57:19;1.60;99.90
12438;DHT22;6283;51.330;12.374;2023-04-03T05:59:45;1.80;99.90
12438;DHT22;6283;51.330;12.374;2023-04-03T06:02:18;1.70;99.90
12438;DHT22;6283;51.330;12.374;2023-04-03T06:04:44;1.60;99.90
12438;DHT22;6283;51.330;12.374;2023-04-03T06:07:14;1.70;99.90
12438;DHT22;6283;51.330;12.374;2023-04-03T06:09:41;1.70;99.90
12438;DHT22;6283;51.330;12.374;2023-04-03T06:12:08;1.80;99.90
12438;DHT22;6283;51.330;12.374;2023-04-03T06:14:33;1.70;99.90
12438;DHT22;6283;51.330;12.374;2023-04-03T06:16:59;1.60;99.90
12438;DHT22;6283;51.330;12.374;2023-04-03T06:19:25;1.70;99.90
12438;DHT22;6283;51.330;12.374;2023-04-03T06:21:51;1.80;99.90
12438;DHT22;6283;51.330;12.374;2023-04-03T06:24:18;1.90;99.90
12438;DHT22;6283;51.330;12.374;2023-04-03T06:26:45;1.90;99.90
12438;DHT22;6283;51.330;12.374;2023-04-03T06:29:11;1.90;99.90
12438;DHT22;6283;51.330;12.374;2023-04-03T06:31:36;1.90;99.90
12438;DHT22;6283;51.330;12.374;2023-04-03T06:34:03;1.90;99.90
12438;DHT22;6283;51.330;12.374;2023-04-03T06:36:28;2.10;99.90
12438;DHT22;6283;51.330;12.374;2023-04-03T06:38:55;2.20;99.90
12438;DHT22;6283;51.330;12.374;2023-04-03T06:41:21;2.10;99.90
12438;DHT22;6283;51.330;12.374;2023-04-03T06:43:47;2.10;99.90
12438;DHT22;6283;51.330;12.374;2023-04-03T06:46:15;2.30;99.90
12438;DHT22;6283;51.330;12.374;2023-04-03T06:48:42;2.20;99.90
12438;DHT22;6283;51.330;12.374;2023-04-03T06:53:48;2.10;99.90
12438;DHT22;6283;51.330;12.374;2023-04-03T06:56:14;2.20;99.90
12438;DHT22;6283;51.330;12.374;2023-04-03T06:58:41;2.20;99.90
12438;DHT22;6283;51.330;12.374;2023-04-03T07:01:07;2.40;99.90
12438;DHT22;6283;51.330;12.374;2023-04-03T07:03:33;2.30;99.90
12438;DHT22;6283;51.330;12.374;2023-04-03T07:05:59;2.40;99.90
12438;DHT22;6283;51.330;12.374;2023-04-03T07:08:25;2.50;99.90
12438;DHT22;6283;51.330;12.374;2023-04-03T07:10:51;2.80;99.90
12438;DHT22;6283;51.330;12.374;2023-04-03T07:13:17;2.70;99.90
12438;DHT22;6283;51.330;12.374;2023-04-03T07:15:42;2.60;99.90
12438;DHT22;6283;51.330;12.374;2023-04-03T07:18:08;3.00;99.90
12438;DHT22;6283;51.330;12.374;2023-04-03T07:20:34;2.80;99.90
12438;DHT22;6283;51.330;12.374;2023-04-03T07:22:59;3.10;99.90
12438;DHT22;6283;51.330;12.374;2023-04-03T07:25:28;3.20;99.90
12438;DHT22;6283;51.330;12.374;2023-04-03T07:27:54;3.10;99.90
12438;DHT22;6283;51.330;12.374;2023-04-03T07:30:23;3.40;99.90
12438;DHT22;6283;51.330;12.374;2023-04-03T07:32:48;3.30;99.90
12438;DHT22;6283;51.330;12.374;2023-04-03T07:35:14;3.30;99.90
12438;DHT22;6283;51.330;12.374;2023-04-03T07:37:40;3.30;95.30
12438;DHT22;6283;51.330;12.374;2023-04-03T07:40:06;3.40;96.70
12438;DHT22;6283;51.330;12.374;2023-04-03T07:42:32;3.60;97.90
12438;DHT22;6283;51.330;12.374;2023-04-03T07:44:57;3.50;98.90
12438;DHT22;6283;51.330;12.374;2023-04-03T07:47:23;3.50;90.10
12438;DHT22;6283;51.330;12.374;2023-04-03T07:49:49;3.90;88.50
12438;DHT22;6283;51.330;12.374;2023-04-03T07:52:15;3.80;80.10
12438;DHT22;6283;51.330;12.374;2023-04-03T07:54:41;3.70;76.90
12438;DHT22;6283;51.330;12.374;2023-04-03T07:57:10;3.80;75.60
12438;DHT22;6283;51.330;12.374;2023-04-03T07:59:35;3.90;74.00
12438;DHT22;6283;51.330;12.374;2023-04-03T08:02:01;3.80;74.20
12438;DHT22;6283;51.330;12.374;2023-04-03T08:04:27;3.90;67.20
12438;DHT22;6283;51.330;12.374;2023-04-03T08:06:53;3.80;66.10
12438;DHT22;6283;51.330;12.374;2023-04-03T08:09:18;3.70;67.00
12438;DHT22;6283;51.330;12.374;2023-04-03T08:11:45;3.90;68.70
12438;DHT22;6283;51.330;12.374;2023-04-03T08:14:12;3.90;70.00
12438;DHT22;6283;51.330;12.374;2023-04-03T08:16:45;3.90;67.40
12438;DHT22;6283;51.330;12.374;2023-04-03T08:19:11;4.40;58.40
12438;DHT22;6283;51.330;12.374;2023-04-03T08:21:39;4.20;52.40
12438;DHT22;6283;51.330;12.374;2023-04-03T08:24:06;4.30;51.00
12438;DHT22;6283;51.330;12.374;2023-04-03T08:26:32;4.50;48.90
12438;DHT22;6283;51.330;12.374;2023-04-03T08:28:58;4.60;40.40
12438;DHT22;6283;51.330;12.374;2023-04-03T08:31:24;4.60;40.90
12438;DHT22;6283;51.330;12.374;2023-04-03T08:33:50;4.50;36.60
12438;DHT22;6283;51.330;12.374;2023-04-03T08:36:21;4.20;36.60
12438;DHT22;6283;51.330;12.374;2023-04-03T08:38:47;4.60;38.80
12438;DHT22;6283;51.330;12.374;2023-04-03T08:44:00;4.50;34.20
12438;DHT22;6283;51.330;12.374;2023-04-03T08:46:44;4.80;29.40
12438;DHT22;6283;51.330;12.374;2023-04-03T08:49:33;4.60;23.70
12438;DHT22;6283;51.330;12.374;2023-04-03T08:52:05;4.70;17.70
12438;DHT22;6283;51.330;12.374;2023-04-03T08:54:37;5.10;13.00
12438;DHT22;6283;51.330;12.374;2023-04-03T08:57:06;5.20;8.10
12438;DHT22;6283;51.330;12.374;2023-04-03T08:59:36;5.30;1.80
12438;DHT22;6283;51.330;12.374;2023-04-03T09:02:33;5.40;1.40
12438;DHT22;6283;51.330;12.374;2023-04-03T09:04:59;5.50;2.30
12438;DHT22;6283;51.330;12.374;2023-04-03T09:07:42;5.50;2.40
12438;DHT22;6283;51.330;12.374;2023-04-03T09:10:12;6.00;1.00
12438;DHT22;6283;51.330;12.374;2023-04-03T09:12:41;6.00;1.00
12438;DHT22;6283;51.330;12.374;2023-04-03T09:15:18;6.20;1.00
12438;DHT22;6283;51.330;12.374;2023-04-03T09:22:50;5.90;1.00
12438;DHT22;6283;51.330;12.374;2023-04-03T09:27:47;5.70;1.00
12438;DHT22;6283;51.330;12.374;2023-04-03T09:30:21;5.50;1.00
12438;DHT22;6283;51.330;12.374;2023-04-03T09:32:49;5.40;1.00
12438;DHT22;6283;51.330;12.374;2023-04-03T09:35:21;5.30;1.00
12438;DHT22;6283;51.330;12.374;2023-04-03T09:37:50;5.40;1.00
12438;DHT22;6283;51.330;12.374;2023-04-03T09:42:53;5.60;1.00
12438;DHT22;6283;51.330;12.374;2023-04-03T09:45:29;5.80;1.00
12438;DHT22;6283;51.330;12.374;2023-04-03T09:50:33;5.80;1.00
12438;DHT22;6283;51.330;12.374;2023-04-03T09:53:05;5.90;1.00
12438;DHT22;6283;51.330;12.374;2023-04-03T09:55:32;6.00;1.00
12438;DHT22;6283;51.330;12.374;2023-04-03T09:58:00;5.90;1.00
12438;DHT22;6283;51.330;12.374;2023-04-03T10:00:34;6.10;1.00
12438;DHT22;6283;51.330;12.374;2023-04-03T10:03:00;6.10;1.00
12438;DHT22;6283;51.330;12.374;2023-04-03T10:05:40;5.90;1.00
12438;DHT22;6283;51.330;12.374;2023-04-03T10:08:17;6.00;1.00
12438;DHT22;6283;51.330;12.374;2023-04-03T10:11:04;5.90;1.00
12438;DHT22;6283;51.330;12.374;2023-04-03T10:13:31;6.00;1.00
12438;DHT22;6283;51.330;12.374;2023-04-03T10:16:08;5.80;1.00
12438;DHT22;6283;51.330;12.374;2023-04-03T10:18:43;5.70;1.00
12438;DHT22;6283;51.330;12.374;2023-04-03T10:24:40;5.70;1.00
12438;DHT22;6283;51.330;12.374;2023-04-03T10:27:16;5.80;1.00
12438;DHT22;6283;51.330;12.374;2023-04-03T10:29:55;5.90;1.00
12438;DHT22;6283;51.330;12.374;2023-04-03T10:41:17;6.10;1.00
12438;DHT22;6283;51.330;12.374;2023-04-03T10:46:40;6.40;1.00
12438;DHT22;6283;51.330;12.374;2023-04-03T10:49:30;6.50;1.00
12438;DHT22;6283;51.330;12.374;2023-04-03T10:57:41;6.60;1.00
12438;DHT22;6283;51.330;12.374;2023-04-03T11:00:38;7.10;1.00
12438;DHT22;6283;51.330;12.374;2023-04-03T11:03:16;7.00;1.00
12438;DHT22;6283;51.330;12.374;2023-04-03T11:05:48;7.20;1.00
12438;DHT22;6283;51.330;12.374;2023-04-03T11:08:26;7.40;1.00
12438;DHT22;6283;51.330;12.374;2023-04-03T11:10:57;7.30;1.00
12438;DHT22;6283;51.330;12.374;2023-04-03T11:16:04;7.40;1.00
12438;DHT22;6283;51.330;12.374;2023-04-03T11:18:45;7.80;1.00
12438;DHT22;6283;51.330;12.374;2023-04-03T11:21:20;7.90;1.00
12438;DHT22;6283;51.330;12.374;2023-04-03T11:23:48;8.00;1.00
12438;DHT22;6283;51.330;12.374;2023-04-03T11:26:20;7.80;1.00
12438;DHT22;6283;51.330;12.374;2023-04-03T11:28:53;7.60;1.00
12438;DHT22;6283;51.330;12.374;2023-04-03T11:31:28;7.50;1.00
12438;DHT22;6283;51.330;12.374;2023-04-03T11:34:26;7.30;1.00
12438;DHT22;6283;51.330;12.374;2023-04-03T11:36:59;7.20;1.00
12438;DHT22;6283;51.330;12.374;2023-04-03T11:39:31;7.60;1.00
12438;DHT22;6283;51.330;12.374;2023-04-03T11:44:49;8.10;1.00
12438;DHT22;6283;51.330;12.374;2023-04-03T11:47:48;8.50;1.00
12438;DHT22;6283;51.330;12.374;2023-04-03T11:58:25;8.90;1.00
12438;DHT22;6283;51.330;12.374;2023-04-03T12:00:57;8.80;1.00
12438;DHT22;6283;51.330;12.374;2023-04-03T12:16:06;10.10;1.00
12438;DHT22;6283;51.330;12.374;2023-04-03T12:21:22;9.70;1.00
12438;DHT22;6283;51.330;12.374;2023-04-03T12:39:54;9.50;1.00
12438;DHT22;6283;51.330;12.374;2023-04-03T12:42:39;9.40;1.00
12438;DHT22;6283;51.330;12.374;2023-04-03T12:45:17;9.20;1.00
12438;DHT22;6283;51.330;12.374;2023-04-03T12:47:45;9.30;1.00
12438;DHT22;6283;51.330;12.374;2023-04-03T12:50:43;9.40;1.00
12438;DHT22;6283;51.330;12.374;2023-04-03T12:53:25;9.60;1.00
12438;DHT22;6283;51.330;12.374;2023-04-03T12:55:56;9.80;1.00
12438;DHT22;6283;51.330;12.374;2023-04-03T12:58:27;9.80;1.00
12438;DHT22;6283;51.330;12.374;2023-04-03T13:01:15;9.40;1.00
12438;DHT22;6283;51.330;12.374;2023-04-03T13:03:46;9.20;1.00
12438;DHT22;6283;51.330;12.374;2023-04-03T13:06:48;9.10;1.00
12438;DHT22;6283;51.330;12.374;2023-04-03T13:09:22;9.20;1.00
12438;DHT22;6283;51.330;12.374;2023-04-03T13:11:50;9.10;1.00
12438;DHT22;6283;51.330;12.374;2023-04-03T13:14:20;9.20;1.00
12438;DHT22;6283;51.330;12.374;2023-04-03T13:17:00;9.30;1.00
12438;DHT22;6283;51.330;12.374;2023-04-03T13:19:28;9.30;1.00
12438;DHT22;6283;51.330;12.374;2023-04-03T13:22:06;9.30;1.00
12438;DHT22;6283;51.330;12.374;2023-04-03T13:24:35;9.20;1.00
12438;DHT22;6283;51.330;12.374;2023-04-03T13:27:02;9.00;1.00
12438;DHT22;6283;51.330;12.374;2023-04-03T13:29:31;9.10;1.00
12438;DHT22;6283;51.330;12.374;2023-04-03T13:31:59;8.60;1.00
12438;DHT22;6283;51.330;12.374;2023-04-03T13:34:42;8.60;1.00
12438;DHT22;6283;51.330;12.374;2023-04-03T13:37:26;8.60;1.00
12438;DHT22;6283;51.330;12.374;2023-04-03T13:42:32;8.60;1.00
12438;DHT22;6283;51.330;12.374;2023-04-03T13:45:18;8.60;1.00
12438;DHT22;6283;51.330;12.374;2023-04-03T13:47:46;8.80;1.00
12438;DHT22;6283;51.330;12.374;2023-04-03T13:50:20;8.60;1.00
12438;DHT22;6283;51.330;12.374;2023-04-03T13:52:50;8.70;1.00
12438;DHT22;6283;51.330;12.374;2023-04-03T13:55:29;8.90;1.00
12438;DHT22;6283;51.330;12.374;2023-04-03T14:03:02;9.20;1.00
12438;DHT22;6283;51.330;12.374;2023-04-03T14:05:28;9.20;1.00
12438;DHT22;6283;51.330;12.374;2023-04-03T14:07:55;9.20;1.00
12438;DHT22;6283;51.330;12.374;2023-04-03T14:10:21;9.00;1.00
12438;DHT22;6283;51.330;12.374;2023-04-03T14:12:47;8.90;1.00
12438;DHT22;6283;51.330;12.374;2023-04-03T14:15:22;8.70;1.00
12438;DHT22;6283;51.330;12.374;2023-04-03T14:17:49;8.40;1.00
12438;DHT22;6283;51.330;12.374;2023-04-03T14:20:19;8.50;1.00
12438;DHT22;6283;51.330;12.374;2023-04-03T14:22:46;8.50;1.00
12438;DHT22;6283;51.330;12.374;2023-04-03T14:25:12;8.20;1.00
12438;DHT22;6283;51.330;12.374;2023-04-03T14:27:40;8.20;1.00
12438;DHT22;6283;51.330;12.374;2023-04-03T14:30:11;8.20;1.00
12438;DHT22;6283;51.330;12.374;2023-04-03T14:32:41;8.10;1.00
12438;DHT22;6283;51.330;12.374;2023-04-03T14:35:07;8.00;1.00
12438;DHT22;6283;51.330;12.374;2023-04-03T14:37:33;8.00;1.00
12438;DHT22;6283;51.330;12.374;2023-04-03T14:40:00;7.90;1.00
12438;DHT22;6283;51.330;12.374;2023-04-03T14:42:30;8.20;1.00
12438;DHT22;6283;51.330;12.374;2023-04-03T14:44:58;8.00;1.00
12438;DHT22;6283;51.330;12.374;2023-04-03T14:47:26;7.60;1.00
12438;DHT22;6283;51.330;12.374;2023-04-03T14:49:53;7.70;1.00
12438;DHT22;6283;51.330;12.374;2023-04-03T14:52:20;7.60;1.00
12438;DHT22;6283;51.330;12.374;2023-04-03T14:54:47;7.90;1.00
12438;DHT22;6283;51.330;12.374;2023-04-03T14:57:14;7.70;1.00
12438;DHT22;6283;51.330;12.374;2023-04-03T14:59:40;7.80;1.00
12438;DHT22;6283;51.330;12.374;2023-04-03T15:02:25;7.80;1.00
12438;DHT22;6283;51.330;12.374;2023-04-03T15:04:52;7.90;1.00
12438;DHT22;6283;51.330;12.374;2023-04-03T15:07:18;7.60;1.00
12438;DHT22;6283;51.330;12.374;2023-04-03T15:09:43;7.60;1.00
12438;DHT22;6283;51.330;12.374;2023-04-03T15:12:12;7.50;1.00
12438;DHT22;6283;51.330;12.374;2023-04-03T15:14:38;7.50;1.00
12438;DHT22;6283;51.330;12.374;2023-04-03T15:17:16;7.40;1.00
12438;DHT22;6283;51.330;12.374;2023-04-03T15:19:43;7.50;1.00
12438;DHT22;6283;51.330;12.374;2023-04-03T15:22:14;7.50;1.00
12438;DHT22;6283;51.330;12.374;2023-04-03T15:24:41;7.40;1.00
12438;DHT22;6283;51.330;12.374;2023-04-03T15:27:06;7.40;1.00
12438;DHT22;6283;51.330;12.374;2023-04-03T15:29:32;7.50;1.00
12438;DHT22;6283;51.330;12.374;2023-04-03T15:31:58;7.40;1.00
12438;DHT22;6283;51.330;12.374;2023-04-03T15:34:23;7.20;1.00
12438;DHT22;6283;51.330;12.374;2023-04-03T15:36:50;7.40;1.00
12438;DHT22;6283;51.330;12.374;2023-04-03T15:39:17;7.40;1.00
12438;DHT22;6283;51.330;12.374;2023-04-03T15:41:44;7.10;1.00
12438;DHT22;6283;51.330;12.374;2023-04-03T15:44:10;6.80;1.00
12438;DHT22;6283;51.330;12.374;2023-04-03T15:46:37;7.00;1.00
12438;DHT22;6283;51.330;12.374;2023-04-03T15:49:04;6.90;1.00
12438;DHT22;6283;51.330;12.374;2023-04-03T15:51:30;6.70;1.00
12438;DHT22;6283;51.330;12.374;2023-04-03T15:53:56;6.90;1.00
12438;DHT22;6283;51.330;12.374;2023-04-03T15:56:21;6.70;1.00
12438;DHT22;6283;51.330;12.374;2023-04-03T15:58:47;6.80;1.00
12438;DHT22;6283;51.330;12.374;2023-04-03T16:01:13;6.70;1.00
12438;DHT22;6283;51.330;12.374;2023-04-03T16:03:40;6.80;1.00
12438;DHT22;6283;51.330;12.374;2023-04-03T16:06:12;6.70;1.00
12438;DHT22;6283;51.330;12.374;2023-04-03T16:08:38;6.70;1.00
12438;DHT22;6283;51.330;12.374;2023-04-03T16:11:04;6.70;1.00
12438;DHT22;6283;51.330;12.374;2023-04-03T16:13:30;6.60;1.00
12438;DHT22;6283;51.330;12.374;2023-04-03T16:15:56;6.60;1.00
12438;DHT22;6283;51.330;12.374;2023-04-03T16:18:21;6.70;1.00
12438;DHT22;6283;51.330;12.374;2023-04-03T16:20:47;6.60;1.00
12438;DHT22;6283;51.330;12.374;2023-04-03T16:23:13;6.80;1.00
12438;DHT22;6283;51.330;12.374;2023-04-03T16:25:39;6.50;1.00
12438;DHT22;6283;51.330;12.374;2023-04-03T16:28:05;6.40;1.00
12438;DHT22;6283;51.330;12.374;2023-04-03T16:30:32;6.50;1.00
12438;DHT22;6283;51.330;12.374;2023-04-03T16:32:58;6.50;1.00
12438;DHT22;6283;51.330;12.374;2023-04-03T16:35:24;6.40;1.00
12438;DHT22;6283;51.330;12.374;2023-04-03T16:37:49;6.40;1.00
12438;DHT22;6283;51.330;12.374;2023-04-03T16:40:15;6.50;1.00
12438;DHT22;6283;51.330;12.374;2023-04-03T16:42:41;6.40;1.00
12438;DHT22;6283;51.330;12.374;2023-04-03T16:45:07;6.40;1.00
12438;DHT22;6283;51.330;12.374;2023-04-03T16:47:33;6.50;1.00
12438;DHT22;6283;51.330;12.374;2023-04-03T16:49:59;6.50;1.00
12438;DHT22;6283;51.330;12.374;2023-04-03T16:52:25;6.60;1.00
12438;DHT22;6283;51.330;12.374;2023-04-03T16:54:50;6.50;1.00
12438;DHT22;6283;51.330;12.374;2023-04-03T16:57:21;6.40;1.00
12438;DHT22;6283;51.330;12.374;2023-04-03T16:59:47;6.40;1.00
12438;DHT22;6283;51.330;12.374;2023-04-03T17:02:12;6.40;1.00
12438;DHT22;6283;51.330;12.374;2023-04-03T17:04:38;6.30;1.00
12438;DHT22;6283;51.330;12.374;2023-04-03T17:07:04;6.20;1.00
12438;DHT22;6283;51.330;12.374;2023-04-03T17:09:32;6.10;1.00
12438;DHT22;6283;51.330;12.374;2023-04-03T17:11:58;6.00;1.00
12438;DHT22;6283;51.330;12.374;2023-04-03T17:14:24;6.00;1.00
12438;DHT22;6283;51.330;12.374;2023-04-03T17:16:50;6.00;1.00
12438;DHT22;6283;51.330;12.374;2023-04-03T17:19:16;6.10;1.00
12438;DHT22;6283;51.330;12.374;2023-04-03T17:21:43;6.00;1.00
12438;DHT22;6283;51.330;12.374;2023-04-03T17:24:10;5.90;1.00
12438;DHT22;6283;51.330;12.374;2023-04-03T17:26:41;5.90;1.00
12438;DHT22;6283;51.330;12.374;2023-04-03T17:29:07;5.80;1.00
12438;DHT22;6283;51.330;12.374;2023-04-03T17:31:33;5.80;1.00
12438;DHT22;6283;51.330;12.374;2023-04-03T17:33:59;5.80;1.00
12438;DHT22;6283;51.330;12.374;2023-04-03T17:36:29;5.70;1.00
12438;DHT22;6283;51.330;12.374;2023-04-03T17:38:55;6.10;1.00